sensor_id;sensor_type;location;lat;lon;timestamp;P1;P2;P0
39955;PMS5003;25631;51.516;-0.470;2023-04-19T00:01:28;4;4;
39955;PMS5003;25631;51.516;-0.470;2023-04-19T00:04:05;3;3;
39955;PMS5003;25631;51.516;-0.470;2023-04-19T00:06:41;4;3;
39955;PMS5003;25631;51.516;-0.470;2023-04-19T00:09:23;4;4;
39955;PMS5003;25631;51.516;-0.470;2023-04-19T00:11:59;3;3;
39955;PMS5003;25631;51.516;-0.470;2023-04-19T00:14:36;5;4;
39955;PMS5003;25631;51.516;-0.470;2023-04-19T00:17:12;5;5;
39955;PMS5003;25631;51.516;-0.470;2023-04-19T00:19:49;5;4;
39955;PMS5003;25631;51.516;-0.470;2023-04-19T00:22:25;3;3;
39955;PMS5003;25631;51.516;-0.470;2023-04-19T00:25:02;4;4;
39955;PMS5003;25631;51.516;-0.470;2023-04-19T00:27:38;2;2;
39955;PMS5003;25631;51.516;-0.470;2023-04-19T00:30:15;3;2;
39955;PMS5003;25631;51.516;-0.470;2023-04-19T00:32:51;2;2;
39955;PMS5003;25631;51.516;-0.470;2023-04-19T00:35:28;1;1;
39955;PMS5003;25631;51.516;-0.470;2023-04-19T00:38:05;2;2;
39955;PMS5003;25631;51.516;-0.470;2023-04-19T00:40:41;2;2;
39955;PMS5003;25631;51.516;-0.470;2023-04-19T00:43:18;7;7;
39955;PMS5003;25631;51.516;-0.470;2023-04-19T00:45:55;6;6;
39955;PMS5003;25631;51.516;-0.470;2023-04-19T00:48:31;5;4;
39955;PMS5003;25631;51.516;-0.470;2023-04-19T00:51:09;5;4;
39955;PMS5003;25631;51.516;-0.470;2023-04-19T00:53:46;3;3;
39955;PMS5003;25631;51.516;-0.470;2023-04-19T00:56:23;6;5;
39955;PMS5003;25631;51.516;-0.470;2023-04-19T00:59:02;3;3;
39955;PMS5003;25631;51.516;-0.470;2023-04-19T01:01:39;4;4;
39955;PMS5003;25631;51.516;-0.470;2023-04-19T01:04:16;5;4;
39955;PMS5003;25631;51.516;-0.470;2023-04-19T01:06:52;5;4;
39955;PMS5003;25631;51.516;-0.470;2023-04-19T01:09:29;6;6;
39955;PMS5003;25631;51.516;-0.470;2023-04-19T01:12:06;7;6;
39955;PMS5003;25631;51.516;-0.470;2023-04-19T01:14:42;7;6;
39955;PMS5003;25631;51.516;-0.470;2023-04-19T01:17:19;6;5;
39955;PMS5003;25631;51.516;-0.470;2023-04-19T01:19:58;6;5;
39955;PMS5003;25631;51.516;-0.470;2023-04-19T01:22:35;5;5;
39955;PMS5003;25631;51.516;-0.470;2023-04-19T01:25:11;4;4;
39955;PMS5003;25631;51.516;-0.470;2023-04-19T01:27:48;5;4;
39955;PMS5003;25631;51.516;-0.470;2023-04-19T01:30:24;4;4;
39955;PMS5003;25631;51.516;-0.470;2023-04-19T01:33:00;6;4;
39955;PMS5003;25631;51.516;-0.470;2023-04-19T01:35:37;5;3;
39955;PMS5003;25631;51.516;-0.470;2023-04-19T01:38:13;4;2;
39955;PMS5003;25631;51.516;-0.470;2023-04-19T01:40:50;3;2;
39955;PMS5003;25631;51.516;-0.470;2023-04-19T01:43:26;4;3;
39955;PMS5003;25631;51.516;-0.470;2023-04-19T01:46:03;4;3;
39955;PMS5003;25631;51.516;-0.470;2023-04-19T01:48:40;4;3;
39955;PMS5003;25631;51.516;-0.470;2023-04-19T01:51:16;4;3;
39955;PMS5003;25631;51.516;-0.470;2023-04-19T01:53:52;4;3;
39955;PMS5003;25631;51.516;-0.470;2023-04-19T01:56:29;5;4;
39955;PMS5003;25631;51.516;-0.470;2023-04-19T01:59:06;4;4;
39955;PMS5003;25631;51.516;-0.470;2023-04-19T02:01:43;4;4;
39955;PMS5003;25631;51.516;-0.470;2023-04-19T02:04:19;6;6;
39955;PMS5003;25631;51.516;-0.470;2023-04-19T02:06:56;5;5;
39955;PMS5003;25631;51.516;-0.470;2023-04-19T02:09:34;3;3;
39955;PMS5003;25631;51.516;-0.470;2023-04-19T02:12:10;3;3;
39955;PMS5003;25631;51.516;-0.470;2023-04-19T02:14:47;4;4;
39955;PMS5003;25631;51.516;-0.470;2023-04-19T02:17:23;2;2;
39955;PMS5003;25631;51.516;-0.470;2023-04-19T02:20:00;3;2;
39955;PMS5003;25631;51.516;-0.470;2023-04-19T02:22:36;3;2;
39955;PMS5003;25631;51.516;-0.470;2023-04-19T02:25:13;2;2;
39955;PMS5003;25631;51.516;-0.470;2023-04-19T02:27:49;3;2;
39955;PMS5003;25631;51.516;-0.470;2023-04-19T02:30:26;5;4;
39955;PMS5003;25631;51.516;-0.470;2023-04-19T02:33:02;8;5;
39955;PMS5003;25631;51.516;-0.470;2023-04-19T02:35:39;7;4;
39955;PMS5003;25631;51.516;-0.470;2023-04-19T02:38:15;7;6;
39955;PMS5003;25631;51.516;-0.470;2023-04-19T02:40:51;6;5;
39955;PMS5003;25631;51.516;-0.470;2023-04-19T02:43:29;6;6;
39955;PMS5003;25631;51.516;-0.470;2023-04-19T02:46:05;6;6;
39955;PMS5003;25631;51.516;-0.470;2023-04-19T02:48:42;6;5;
39955;PMS5003;25631;51.516;-0.470;2023-04-19T02:51:19;6;5;
39955;PMS5003;25631;51.516;-0.470;2023-04-19T02:53:55;5;4;
39955;PMS5003;25631;51.516;-0.470;2023-04-19T02:56:31;6;6;
39955;PMS5003;25631;51.516;-0.470;2023-04-19T02:59:08;7;7;
39955;PMS5003;25631;51.516;-0.470;2023-04-19T03:01:44;7;6;
39955;PMS5003;25631;51.516;-0.470;2023-04-19T03:04:21;6;5;
39955;PMS5003;25631;51.516;-0.470;2023-04-19T03:06:57;6;4;
39955;PMS5003;25631;51.516;-0.470;2023-04-19T03:09:34;4;4;
39955;PMS5003;25631;51.516;-0.470;2023-04-19T03:12:10;6;4;
39955;PMS5003;25631;51.516;-0.470;2023-04-19T03:14:47;5;4;
39955;PMS5003;25631;51.516;-0.470;2023-04-19T03:17:23;6;5;
39955;PMS5003;25631;51.516;-0.470;2023-04-19T03:20:00;7;5;
39955;PMS5003;25631;51.516;-0.470;2023-04-19T03:22:36;9;6;
39955;PMS5003;25631;51.516;-0.470;2023-04-19T03:25:13;5;5;
39955;PMS5003;25631;51.516;-0.470;2023-04-19T03:27:49;6;5;
39955;PMS5003;25631;51.516;-0.470;2023-04-19T03:30:26;6;5;
39955;PMS5003;25631;51.516;-0.470;2023-04-19T03:33:02;7;5;
39955;PMS5003;25631;51.516;-0.470;2023-04-19T03:35:39;6;4;
39955;PMS5003;25631;51.516;-0.470;2023-04-19T03:38:15;3;3;
39955;PMS5003;25631;51.516;-0.470;2023-04-19T03:40:52;4;4;
39955;PMS5003;25631;51.516;-0.470;2023-04-19T03:43:28;4;3;
39955;PMS5003;25631;51.516;-0.470;2023-04-19T03:46:04;6;4;
39955;PMS5003;25631;51.516;-0.470;2023-04-19T03:48:41;6;5;
39955;PMS5003;25631;51.516;-0.470;2023-04-19T03:51:17;4;4;
39955;PMS5003;25631;51.516;-0.470;2023-04-19T03:53:54;5;4;
39955;PMS5003;25631;51.516;-0.470;2023-04-19T03:56:30;5;3;
39955;PMS5003;25631;51.516;-0.470;2023-04-19T03:59:06;4;3;
39955;PMS5003;25631;51.516;-0.470;2023-04-19T04:01:44;5;4;
39955;PMS5003;25631;51.516;-0.470;2023-04-19T04:04:21;2;2;
39955;PMS5003;25631;51.516;-0.470;2023-04-19T04:06:58;2;2;
39955;PMS5003;25631;51.516;-0.470;2023-04-19T04:09:34;3;2;
39955;PMS5003;25631;51.516;-0.470;2023-04-19T04:12:11;5;3;
39955;PMS5003;25631;51.516;-0.470;2023-04-19T04:14:48;5;4;
39955;PMS5003;25631;51.516;-0.470;2023-04-19T04:17:24;6;4;
39955;PMS5003;25631;51.516;-0.470;2023-04-19T04:20:00;5;4;
39955;PMS5003;25631;51.516;-0.470;2023-04-19T04:22:39;5;5;
39955;PMS5003;25631;51.516;-0.470;2023-04-19T04:25:16;6;5;
39955;PMS5003;25631;51.516;-0.470;2023-04-19T04:27:53;6;5;
39955;PMS5003;25631;51.516;-0.470;2023-04-19T04:30:29;9;8;
39955;PMS5003;25631;51.516;-0.470;2023-04-19T04:33:06;4;4;
39955;PMS5003;25631;51.516;-0.470;2023-04-19T04:35:42;4;3;
39955;PMS5003;25631;51.516;-0.470;2023-04-19T04:38:19;3;1;
39955;PMS5003;25631;51.516;-0.470;2023-04-19T04:40:56;2;1;
39955;PMS5003;25631;51.516;-0.470;2023-04-19T04:43:32;2;2;
39955;PMS5003;25631;51.516;-0.470;2023-04-19T04:46:09;3;3;
39955;PMS5003;25631;51.516;-0.470;2023-04-19T04:48:46;4;3;
39955;PMS5003;25631;51.516;-0.470;2023-04-19T04:51:22;4;4;
39955;PMS5003;25631;51.516;-0.470;2023-04-19T04:53:58;4;4;
39955;PMS5003;25631;51.516;-0.470;2023-04-19T04:56:35;4;4;
39955;PMS5003;25631;51.516;-0.470;2023-04-19T04:59:11;7;5;
39955;PMS5003;25631;51.516;-0.470;2023-04-19T05:01:48;4;3;
39955;PMS5003;25631;51.516;-0.470;2023-04-19T05:04:25;3;2;
39955;PMS5003;25631;51.516;-0.470;2023-04-19T05:07:01;7;7;
39955;PMS5003;25631;51.516;-0.470;2023-04-19T05:09:38;7;7;
39955;PMS5003;25631;51.516;-0.470;2023-04-19T05:12:14;4;4;
39955;PMS5003;25631;51.516;-0.470;2023-04-19T05:14:50;3;3;
39955;PMS5003;25631;51.516;-0.470;2023-04-19T05:17:27;3;3;
39955;PMS5003;25631;51.516;-0.470;2023-04-19T05:20:03;5;4;
39955;PMS5003;25631;51.516;-0.470;2023-04-19T05:22:41;5;4;
39955;PMS5003;25631;51.516;-0.470;2023-04-19T05:25:17;6;4;
39955;PMS5003;25631;51.516;-0.470;2023-04-19T05:27:54;4;4;
39955;PMS5003;25631;51.516;-0.470;2023-04-19T05:30:31;6;6;
39955;PMS5003;25631;51.516;-0.470;2023-04-19T05:33:08;4;3;
39955;PMS5003;25631;51.516;-0.470;2023-04-19T05:35:44;5;4;
39955;PMS5003;25631;51.516;-0.470;2023-04-19T05:38:21;5;4;
39955;PMS5003;25631;51.516;-0.470;2023-04-19T05:40:57;5;4;
39955;PMS5003;25631;51.516;-0.470;2023-04-19T05:43:34;4;4;
39955;PMS5003;25631;51.516;-0.470;2023-04-19T05:46:10;8;5;
39955;PMS5003;25631;51.516;-0.470;2023-04-19T05:48:47;8;5;
39955;PMS5003;25631;51.516;-0.470;2023-04-19T05:51:23;4;4;
39955;PMS5003;25631;51.516;-0.470;2023-04-19T05:54:00;3;3;
39955;PMS5003;25631;51.516;-0.470;2023-04-19T05:56:36;4;4;
39955;PMS5003;25631;51.516;-0.470;2023-04-19T05:59:12;6;6;
39955;PMS5003;25631;51.516;-0.470;2023-04-19T06:01:49;7;6;
39955;PMS5003;25631;51.516;-0.470;2023-04-19T06:04:25;7;6;
39955;PMS5003;25631;51.516;-0.470;2023-04-19T06:07:02;6;5;
39955;PMS5003;25631;51.516;-0.470;2023-04-19T06:09:38;6;5;
39955;PMS5003;25631;51.516;-0.470;2023-04-19T06:12:15;3;3;
39955;PMS5003;25631;51.516;-0.470;2023-04-19T06:14:51;4;4;
39955;PMS5003;25631;51.516;-0.470;2023-04-19T06:17:27;6;5;
39955;PMS5003;25631;51.516;-0.470;2023-04-19T06:20:05;5;4;
39955;PMS5003;25631;51.516;-0.470;2023-04-19T06:22:43;6;5;
39955;PMS5003;25631;51.516;-0.470;2023-04-19T06:25:20;6;5;
39955;PMS5003;25631;51.516;-0.470;2023-04-19T06:27:57;5;5;
39955;PMS5003;25631;51.516;-0.470;2023-04-19T06:30:33;5;5;
39955;PMS5003;25631;51.516;-0.470;2023-04-19T06:33:10;6;6;
39955;PMS5003;25631;51.516;-0.470;2023-04-19T06:35:46;6;6;
39955;PMS5003;25631;51.516;-0.470;2023-04-19T06:38:23;5;5;
39955;PMS5003;25631;51.516;-0.470;2023-04-19T06:40:59;8;6;
39955;PMS5003;25631;51.516;-0.470;2023-04-19T06:43:36;8;7;
39955;PMS5003;25631;51.516;-0.470;2023-04-19T06:46:12;7;5;
39955;PMS5003;25631;51.516;-0.470;2023-04-19T06:48:49;7;6;
39955;PMS5003;25631;51.516;-0.470;2023-04-19T06:51:25;7;6;
39955;PMS5003;25631;51.516;-0.470;2023-04-19T06:54:02;8;7;
39955;PMS5003;25631;51.516;-0.470;2023-04-19T06:56:38;7;6;
39955;PMS5003;25631;51.516;-0.470;2023-04-19T06:59:16;9;7;
39955;PMS5003;25631;51.516;-0.470;2023-04-19T07:01:54;7;6;
39955;PMS5003;25631;51.516;-0.470;2023-04-19T07:04:30;6;6;
39955;PMS5003;25631;51.516;-0.470;2023-04-19T07:07:06;10;9;
39955;PMS5003;25631;51.516;-0.470;2023-04-19T07:09:43;10;8;
39955;PMS5003;25631;51.516;-0.470;2023-04-19T07:12:19;10;8;
39955;PMS5003;25631;51.516;-0.470;2023-04-19T07:14:56;9;8;
39955;PMS5003;25631;51.516;-0.470;2023-04-19T07:17:40;9;8;
39955;PMS5003;25631;51.516;-0.470;2023-04-19T07:20:17;68;63;
39955;PMS5003;25631;51.516;-0.470;2023-04-19T07:22:53;79;68;
39955;PMS5003;25631;51.516;-0.470;2023-04-19T07:25:29;71;63;
39955;PMS5003;25631;51.516;-0.470;2023-04-19T07:28:06;20;17;
39955;PMS5003;25631;51.516;-0.470;2023-04-19T07:30:42;19;16;
39955;PMS5003;25631;51.516;-0.470;2023-04-19T07:33:19;18;16;
39955;PMS5003;25631;51.516;-0.470;2023-04-19T07:35:56;26;23;
39955;PMS5003;25631;51.516;-0.470;2023-04-19T07:38:32;30;24;
39955;PMS5003;25631;51.516;-0.470;2023-04-19T07:41:09;11;9;
39955;PMS5003;25631;51.516;-0.470;2023-04-19T07:43:46;11;9;
39955;PMS5003;25631;51.516;-0.470;2023-04-19T07:46:22;11;9;
39955;PMS5003;25631;51.516;-0.470;2023-04-19T07:48:58;18;18;
39955;PMS5003;25631;51.516;-0.470;2023-04-19T07:51:35;18;18;
39955;PMS5003;25631;51.516;-0.470;2023-04-19T07:54:11;8;8;
39955;PMS5003;25631;51.516;-0.470;2023-04-19T07:56:47;7;7;
39955;PMS5003;25631;51.516;-0.470;2023-04-19T07:59:24;8;7;
39955;PMS5003;25631;51.516;-0.470;2023-04-19T08:02:02;7;5;
39955;PMS5003;25631;51.516;-0.470;2023-04-19T08:04:38;7;5;
39955;PMS5003;25631;51.516;-0.470;2023-04-19T08:07:15;6;4;
39955;PMS5003;25631;51.516;-0.470;2023-04-19T08:09:51;3;3;
39955;PMS5003;25631;51.516;-0.470;2023-04-19T08:12:28;4;3;
39955;PMS5003;25631;51.516;-0.470;2023-04-19T08:15:05;7;7;
39955;PMS5003;25631;51.516;-0.470;2023-04-19T08:17:43;7;7;
39955;PMS5003;25631;51.516;-0.470;2023-04-19T08:20:19;6;6;
39955;PMS5003;25631;51.516;-0.470;2023-04-19T08:22:56;7;7;
39955;PMS5003;25631;51.516;-0.470;2023-04-19T08:25:33;8;7;
39955;PMS5003;25631;51.516;-0.470;2023-04-19T08:28:09;4;3;
39955;PMS5003;25631;51.516;-0.470;2023-04-19T08:30:46;5;4;
39955;PMS5003;25631;51.516;-0.470;2023-04-19T08:33:22;4;4;
39955;PMS5003;25631;51.516;-0.470;2023-04-19T08:35:59;4;3;
39955;PMS5003;25631;51.516;-0.470;2023-04-19T08:38:35;4;2;
39955;PMS5003;25631;51.516;-0.470;2023-04-19T08:41:12;4;3;
39955;PMS5003;25631;51.516;-0.470;2023-04-19T08:43:49;3;2;
39955;PMS5003;25631;51.516;-0.470;2023-04-19T08:46:26;3;1;
39955;PMS5003;25631;51.516;-0.470;2023-04-19T08:49:08;4;3;
39955;PMS5003;25631;51.516;-0.470;2023-04-19T08:51:47;6;4;
39955;PMS5003;25631;51.516;-0.470;2023-04-19T08:54:24;4;3;
39955;PMS5003;25631;51.516;-0.470;2023-04-19T08:57:01;4;3;
39955;PMS5003;25631;51.516;-0.470;2023-04-19T08:59:37;4;3;
39955;PMS5003;25631;51.516;-0.470;2023-04-19T09:02:14;6;6;
39955;PMS5003;25631;51.516;-0.470;2023-04-19T09:04:51;4;4;
39955;PMS5003;25631;51.516;-0.470;2023-04-19T09:07:27;5;5;
39955;PMS5003;25631;51.516;-0.470;2023-04-19T09:10:04;5;4;
39955;PMS5003;25631;51.516;-0.470;2023-04-19T09:12:42;6;5;
39955;PMS5003;25631;51.516;-0.470;2023-04-19T09:15:34;4;4;
39955;PMS5003;25631;51.516;-0.470;2023-04-19T09:18:12;4;3;
39955;PMS5003;25631;51.516;-0.470;2023-04-19T09:20:49;4;3;
39955;PMS5003;25631;51.516;-0.470;2023-04-19T09:23:26;4;3;
39955;PMS5003;25631;51.516;-0.470;2023-04-19T09:26:03;3;3;
39955;PMS5003;25631;51.516;-0.470;2023-04-19T09:28:40;5;4;
39955;PMS5003;25631;51.516;-0.470;2023-04-19T09:31:36;6;5;
39955;PMS5003;25631;51.516;-0.470;2023-04-19T09:34:13;5;5;
39955;PMS5003;25631;51.516;-0.470;2023-04-19T09:36:51;4;4;
39955;PMS5003;25631;51.516;-0.470;2023-04-19T09:39:30;4;3;
39955;PMS5003;25631;51.516;-0.470;2023-04-19T09:42:06;4;4;
39955;PMS5003;25631;51.516;-0.470;2023-04-19T09:44:54;3;2;
39955;PMS5003;25631;51.516;-0.470;2023-04-19T09:47:31;3;3;
39955;PMS5003;25631;51.516;-0.470;2023-04-19T09:50:08;3;3;
39955;PMS5003;25631;51.516;-0.470;2023-04-19T09:52:46;2;2;
39955;PMS5003;25631;51.516;-0.470;2023-04-19T09:55:25;3;3;
39955;PMS5003;25631;51.516;-0.470;2023-04-19T09:58:01;3;3;
39955;PMS5003;25631;51.516;-0.470;2023-04-19T10:00:38;3;3;
39955;PMS5003;25631;51.516;-0.470;2023-04-19T10:03:18;8;4;
39955;PMS5003;25631;51.516;-0.470;2023-04-19T10:05:54;7;3;
39955;PMS5003;25631;51.516;-0.470;2023-04-19T10:08:32;6;2;
39955;PMS5003;25631;51.516;-0.470;2023-04-19T10:11:08;4;4;
39955;PMS5003;25631;51.516;-0.470;2023-04-19T10:13:47;6;5;
39955;PMS5003;25631;51.516;-0.470;2023-04-19T10:16:29;3;2;
39955;PMS5003;25631;51.516;-0.470;2023-04-19T10:19:07;2;2;
39955;PMS5003;25631;51.516;-0.470;2023-04-19T10:21:46;1;1;
39955;PMS5003;25631;51.516;-0.470;2023-04-19T10:24:24;4;3;
39955;PMS5003;25631;51.516;-0.470;2023-04-19T10:27:08;3;2;
39955;PMS5003;25631;51.516;-0.470;2023-04-19T10:30:01;7;6;
39955;PMS5003;25631;51.516;-0.470;2023-04-19T10:32:40;6;4;
39955;PMS5003;25631;51.516;-0.470;2023-04-19T10:35:18;5;5;
39955;PMS5003;25631;51.516;-0.470;2023-04-19T10:38:04;5;5;
39955;PMS5003;25631;51.516;-0.470;2023-04-19T10:40:58;4;4;
39955;PMS5003;25631;51.516;-0.470;2023-04-19T10:43:37;5;4;
39955;PMS5003;25631;51.516;-0.470;2023-04-19T10:46:15;5;4;
39955;PMS5003;25631;51.516;-0.470;2023-04-19T10:49:15;5;4;
39955;PMS5003;25631;51.516;-0.470;2023-04-19T10:51:52;3;3;
39955;PMS5003;25631;51.516;-0.470;2023-04-19T10:54:29;4;4;
39955;PMS5003;25631;51.516;-0.470;2023-04-19T10:57:12;3;2;
39955;PMS5003;25631;51.516;-0.470;2023-04-19T11:00:16;3;2;
39955;PMS5003;25631;51.516;-0.470;2023-04-19T11:02:53;1;1;
39955;PMS5003;25631;51.516;-0.470;2023-04-19T11:05:36;3;2;
39955;PMS5003;25631;51.516;-0.470;2023-04-19T11:08:50;4;2;
39955;PMS5003;25631;51.516;-0.470;2023-04-19T11:11:28;6;5;
39955;PMS5003;25631;51.516;-0.470;2023-04-19T11:14:08;5;5;
39955;PMS5003;25631;51.516;-0.470;2023-04-19T11:16:45;5;5;
39955;PMS5003;25631;51.516;-0.470;2023-04-19T11:19:22;6;5;
39955;PMS5003;25631;51.516;-0.470;2023-04-19T11:21:58;7;6;
39955;PMS5003;25631;51.516;-0.470;2023-04-19T11:24:44;2;2;
39955;PMS5003;25631;51.516;-0.470;2023-04-19T11:27:20;3;3;
39955;PMS5003;25631;51.516;-0.470;2023-04-19T11:30:00;3;3;
39955;PMS5003;25631;51.516;-0.470;2023-04-19T11:32:43;2;1;
39955;PMS5003;25631;51.516;-0.470;2023-04-19T11:35:21;4;3;
39955;PMS5003;25631;51.516;-0.470;2023-04-19T11:37:58;3;3;
39955;PMS5003;25631;51.516;-0.470;2023-04-19T11:40:35;3;3;
39955;PMS5003;25631;51.516;-0.470;2023-04-19T11:43:11;3;3;
39955;PMS5003;25631;51.516;-0.470;2023-04-19T11:45:48;3;2;
39955;PMS5003;25631;51.516;-0.470;2023-04-19T11:48:25;3;2;
39955;PMS5003;25631;51.516;-0.470;2023-04-19T11:51:02;4;3;
39955;PMS5003;25631;51.516;-0.470;2023-04-19T11:53:40;4;3;
39955;PMS5003;25631;51.516;-0.470;2023-04-19T11:56:17;5;4;
39955;PMS5003;25631;51.516;-0.470;2023-04-19T11:58:55;5;4;
39955;PMS5003;25631;51.516;-0.470;2023-04-19T12:01:32;6;6;
39955;PMS5003;25631;51.516;-0.470;2023-04-19T12:04:09;6;5;
39955;PMS5003;25631;51.516;-0.470;2023-04-19T12:06:54;2;2;
39955;PMS5003;25631;51.516;-0.470;2023-04-19T12:09:32;2;1;
39955;PMS5003;25631;51.516;-0.470;2023-04-19T12:12:10;7;7;
39955;PMS5003;25631;51.516;-0.470;2023-04-19T12:14:50;6;6;
39955;PMS5003;25631;51.516;-0.470;2023-04-19T12:17:27;5;5;
39955;PMS5003;25631;51.516;-0.470;2023-04-19T12:20:04;4;4;
39955;PMS5003;25631;51.516;-0.470;2023-04-19T12:22:42;4;4;
39955;PMS5003;25631;51.516;-0.470;2023-04-19T12:25:19;3;3;
39955;PMS5003;25631;51.516;-0.470;2023-04-19T12:27:55;3;3;
39955;PMS5003;25631;51.516;-0.470;2023-04-19T12:30:32;4;4;
39955;PMS5003;25631;51.516;-0.470;2023-04-19T12:33:10;1;1;
39955;PMS5003;25631;51.516;-0.470;2023-04-19T12:35:47;1;1;
39955;PMS5003;25631;51.516;-0.470;2023-04-19T12:38:23;2;2;
39955;PMS5003;25631;51.516;-0.470;2023-04-19T12:40:59;1;1;
39955;PMS5003;25631;51.516;-0.470;2023-04-19T12:43:36;2;2;
39955;PMS5003;25631;51.516;-0.470;2023-04-19T12:46:12;2;2;
39955;PMS5003;25631;51.516;-0.470;2023-04-19T12:48:49;2;2;
39955;PMS5003;25631;51.516;-0.470;2023-04-19T12:51:25;2;2;
39955;PMS5003;25631;51.516;-0.470;2023-04-19T12:54:02;1;1;
39955;PMS5003;25631;51.516;-0.470;2023-04-19T12:56:38;1;1;
39955;PMS5003;25631;51.516;-0.470;2023-04-19T12:59:15;1;1;
39955;PMS5003;25631;51.516;-0.470;2023-04-19T13:01:52;1;1;
39955;PMS5003;25631;51.516;-0.470;2023-04-19T13:04:30;1;1;
39955;PMS5003;25631;51.516;-0.470;2023-04-19T13:07:07;0;0;
39955;PMS5003;25631;51.516;-0.470;2023-04-19T13:09:43;1;1;
39955;PMS5003;25631;51.516;-0.470;2023-04-19T13:12:20;1;0;
39955;PMS5003;25631;51.516;-0.470;2023-04-19T13:14:56;1;0;
39955;PMS5003;25631;51.516;-0.470;2023-04-19T13:17:34;1;1;
39955;PMS5003;25631;51.516;-0.470;2023-04-19T13:20:11;1;1;
39955;PMS5003;25631;51.516;-0.470;2023-04-19T13:22:48;1;1;
39955;PMS5003;25631;51.516;-0.470;2023-04-19T13:25:24;1;1;
39955;PMS5003;25631;51.516;-0.470;2023-04-19T13:28:01;1;0;
39955;PMS5003;25631;51.516;-0.470;2023-04-19T13:30:37;1;1;
39955;PMS5003;25631;51.516;-0.470;2023-04-19T13:33:13;2;2;
39955;PMS5003;25631;51.516;-0.470;2023-04-19T13:35:50;3;2;
39955;PMS5003;25631;51.516;-0.470;2023-04-19T13:38:26;3;2;
39955;PMS5003;25631;51.516;-0.470;2023-04-19T13:41:03;0;0;
39955;PMS5003;25631;51.516;-0.470;2023-04-19T13:43:40;0;0;
39955;PMS5003;25631;51.516;-0.470;2023-04-19T13:46:16;1;1;
39955;PMS5003;25631;51.516;-0.470;2023-04-19T13:48:52;1;1;
39955;PMS5003;25631;51.516;-0.470;2023-04-19T13:51:30;1;1;
39955;PMS5003;25631;51.516;-0.470;2023-04-19T13:54:06;1;1;
39955;PMS5003;25631;51.516;-0.470;2023-04-19T13:56:42;1;1;
39955;PMS5003;25631;51.516;-0.470;2023-04-19T13:59:19;1;1;
39955;PMS5003;25631;51.516;-0.470;2023-04-19T14:01:56;0;0;
39955;PMS5003;25631;51.516;-0.470;2023-04-19T14:04:32;0;0;
39955;PMS5003;25631;51.516;-0.470;2023-04-19T14:07:09;1;1;
39955;PMS5003;25631;51.516;-0.470;2023-04-19T14:09:45;1;1;
39955;PMS5003;25631;51.516;-0.470;2023-04-19T14:12:21;1;0;
39955;PMS5003;25631;51.516;-0.470;2023-04-19T14:14:58;1;1;
39955;PMS5003;25631;51.516;-0.470;2023-04-19T14:17:35;2;2;
39955;PMS5003;25631;51.516;-0.470;2023-04-19T14:20:11;0;0;
39955;PMS5003;25631;51.516;-0.470;2023-04-19T14:22:48;1;1;
39955;PMS5003;25631;51.516;-0.470;2023-04-19T14:25:25;2;2;
39955;PMS5003;25631;51.516;-0.470;2023-04-19T14:28:02;2;2;
39955;PMS5003;25631;51.516;-0.470;2023-04-19T14:30:39;2;1;
39955;PMS5003;25631;51.516;-0.470;2023-04-19T14:33:15;1;0;
39955;PMS5003;25631;51.516;-0.470;2023-04-19T14:35:51;2;2;
39955;PMS5003;25631;51.516;-0.470;2023-04-19T14:38:33;3;3;
39955;PMS5003;25631;51.516;-0.470;2023-04-19T14:41:09;2;2;
39955;PMS5003;25631;51.516;-0.470;2023-04-19T14:43:46;2;2;
39955;PMS5003;25631;51.516;-0.470;2023-04-19T14:46:23;2;2;
39955;PMS5003;25631;51.516;-0.470;2023-04-19T14:49:00;0;0;
39955;PMS5003;25631;51.516;-0.470;2023-04-19T14:51:37;1;1;
39955;PMS5003;25631;51.516;-0.470;2023-04-19T14:54:13;0;0;
39955;PMS5003;25631;51.516;-0.470;2023-04-19T14:56:50;1;1;
39955;PMS5003;25631;51.516;-0.470;2023-04-19T14:59:27;1;1;
39955;PMS5003;25631;51.516;-0.470;2023-04-19T15:02:04;2;2;
39955;PMS5003;25631;51.516;-0.470;2023-04-19T15:04:43;1;1;
39955;PMS5003;25631;51.516;-0.470;2023-04-19T15:07:19;2;2;
39955;PMS5003;25631;51.516;-0.470;2023-04-19T15:09:56;1;1;
39955;PMS5003;25631;51.516;-0.470;2023-04-19T15:12:34;1;1;
39955;PMS5003;25631;51.516;-0.470;2023-04-19T15:15:10;6;6;
39955;PMS5003;25631;51.516;-0.470;2023-04-19T15:17:47;5;5;
39955;PMS5003;25631;51.516;-0.470;2023-04-19T15:20:24;4;4;
39955;PMS5003;25631;51.516;-0.470;2023-04-19T15:23:01;1;0;
39955;PMS5003;25631;51.516;-0.470;2023-04-19T15:25:38;1;0;
39955;PMS5003;25631;51.516;-0.470;2023-04-19T15:28:15;2;2;
39955;PMS5003;25631;51.516;-0.470;2023-04-19T15:30:56;2;2;
39955;PMS5003;25631;51.516;-0.470;2023-04-19T15:33:34;1;1;
39955;PMS5003;25631;51.516;-0.470;2023-04-19T15:36:11;2;2;
39955;PMS5003;25631;51.516;-0.470;2023-04-19T15:38:48;2;2;
39955;PMS5003;25631;51.516;-0.470;2023-04-19T15:41:24;2;2;
39955;PMS5003;25631;51.516;-0.470;2023-04-19T15:44:01;1;1;
39955;PMS5003;25631;51.516;-0.470;2023-04-19T15:46:38;1;1;
39955;PMS5003;25631;51.516;-0.470;2023-04-19T15:49:20;2;2;
39955;PMS5003;25631;51.516;-0.470;2023-04-19T15:51:57;2;2;
39955;PMS5003;25631;51.516;-0.470;2023-04-19T15:54:33;2;2;
39955;PMS5003;25631;51.516;-0.470;2023-04-19T15:57:10;1;1;
39955;PMS5003;25631;51.516;-0.470;2023-04-19T15:59:47;2;1;
39955;PMS5003;25631;51.516;-0.470;2023-04-19T16:02:23;6;5;
39955;PMS5003;25631;51.516;-0.470;2023-04-19T16:05:00;5;5;
39955;PMS5003;25631;51.516;-0.470;2023-04-19T16:07:36;4;4;
39955;PMS5003;25631;51.516;-0.470;2023-04-19T16:10:13;1;1;
39955;PMS5003;25631;51.516;-0.470;2023-04-19T16:12:50;0;0;
39955;PMS5003;25631;51.516;-0.470;2023-04-19T16:15:26;1;1;
39955;PMS5003;25631;51.516;-0.470;2023-04-19T16:18:03;1;1;
39955;PMS5003;25631;51.516;-0.470;2023-04-19T16:20:39;2;2;
39955;PMS5003;25631;51.516;-0.470;2023-04-19T16:23:16;1;1;
39955;PMS5003;25631;51.516;-0.470;2023-04-19T16:25:53;2;2;
39955;PMS5003;25631;51.516;-0.470;2023-04-19T16:28:30;1;1;
39955;PMS5003;25631;51.516;-0.470;2023-04-19T16:31:06;1;1;
39955;PMS5003;25631;51.516;-0.470;2023-04-19T16:33:43;1;1;
39955;PMS5003;25631;51.516;-0.470;2023-04-19T16:36:19;2;2;
39955;PMS5003;25631;51.516;-0.470;2023-04-19T16:38:56;4;2;
39955;PMS5003;25631;51.516;-0.470;2023-04-19T16:41:32;3;2;
39955;PMS5003;25631;51.516;-0.470;2023-04-19T16:44:09;1;1;
39955;PMS5003;25631;51.516;-0.470;2023-04-19T16:46:46;1;1;
39955;PMS5003;25631;51.516;-0.470;2023-04-19T16:49:23;2;2;
39955;PMS5003;25631;51.516;-0.470;2023-04-19T16:52:00;2;2;
39955;PMS5003;25631;51.516;-0.470;2023-04-19T16:54:36;2;2;
39955;PMS5003;25631;51.516;-0.470;2023-04-19T16:57:13;1;1;
39955;PMS5003;25631;51.516;-0.470;2023-04-19T16:59:50;1;1;
39955;PMS5003;25631;51.516;-0.470;2023-04-19T17:02:26;2;2;
39955;PMS5003;25631;51.516;-0.470;2023-04-19T17:05:03;1;1;
39955;PMS5003;25631;51.516;-0.470;2023-04-19T17:07:40;1;1;
39955;PMS5003;25631;51.516;-0.470;2023-04-19T17:10:18;1;1;
39955;PMS5003;25631;51.516;-0.470;2023-04-19T17:12:54;1;1;
39955;PMS5003;25631;51.516;-0.470;2023-04-19T17:15:31;3;3;
39955;PMS5003;25631;51.516;-0.470;2023-04-19T17:18:07;2;2;
39955;PMS5003;25631;51.516;-0.470;2023-04-19T17:20:44;2;2;
39955;PMS5003;25631;51.516;-0.470;2023-04-19T17:23:20;0;0;
39955;PMS5003;25631;51.516;-0.470;2023-04-19T17:25:57;2;2;
39955;PMS5003;25631;51.516;-0.470;2023-04-19T17:28:34;1;1;
39955;PMS5003;25631;51.516;-0.470;2023-04-19T17:31:11;0;0;
39955;PMS5003;25631;51.516;-0.470;2023-04-19T17:33:48;2;2;
39955;PMS5003;25631;51.516;-0.470;2023-04-19T17:36:25;1;1;
39955;PMS5003;25631;51.516;-0.470;2023-04-19T17:39:02;2;2;
39955;PMS5003;25631;51.516;-0.470;2023-04-19T17:41:39;2;2;